Terminal Aerodrome Forecast
Issued by NWS St Louis, MO

Home | Current Version | Previous Version | Text Only | Print | Product List | Glossary On
Versions: 1 2 3 4 5 6 7 8 9 10 11 12 13 14 15 16 17 18 19 20 21 22 23 24 25 26 27 28 29 30 31 32 33 34 35
000
FTUS43 KLSX 032000 AAB
TAFSTL
TAF AMD
KSTL 032058Z 0321/0424 26010KT P6SM SCT007 OVC012
      TEMPO 0321/0324 4SM BR BKN025
     FM040000 30010KT P6SM OVC015
     FM040500 34014KT P6SM SCT007 OVC015
     FM041600 35012KT P6SM SCT015 OVC040=

USA.gov is the U.S. government's official web portal to all federal, state and local government web resources and services.